Skip to content
You are here: Gozo Weather
Gozo Weather Station for the very latest live weather conditions from Gozo and Malta
 
 TIME   TEMPERATURE   WINDSPEED   DIRECTION   HUMIDITY   BAROMETER   RAINFALL 
2:15 31.9°C (89.4°F) 18.5 kmh (11.5 mph) W 57% 1015.0hPa (29.97 inHg) 0.0mm (0.00 in.)
1:15 31.4°C (88.5 °F) 14.8 kmh (9.2 mph) W 61% 1016.0hPa (30.00 inHg) 0.0mm (0.00 in.)
12:15 29.6°C (85.3 °F) 13.0 kmh (8.1 mph) WSW 67% 1016.0hPa (30.00 inHg) 0.0mm (0.00 in.)
11:15 28.9°C (84.0 °F) 20.4 kmh (12.7 mph) WNW 70% 1016.0hPa (30.00 inHg) 0.0mm (0.00 in.)
10:15 28.4°C (83.1 °F) 14.8 kmh (9.2 mph) WSW 71% 1016.0hPa (30.00 inHg) 0.0mm (0.00 in.)
9:15 27.8°C (82.0 °F) 14.8 kmh (9.2 mph) W 76% 1015.0hPa (29.97 inHg) 0.0mm (0.00 in.)
8:09 26.0°C (78.8 °F) 13.0 kmh (8.1 mph) W 77% 1015.0hPa (29.97 inHg) 0.0mm (0.00 in.)
7:09 25.7°C (78.3 °F) 3.7 kmh (2.3 mph) W 76% 1015.0hPa (29.97 inHg) 0.0mm (0.00 in.)
6:09 25.6°C (78.1 °F) 0.0 kmh (0.0 mph) W 75% 1014.0hPa (29.94 inHg) 0.0mm (0.00 in.)
5:09 25.7°C (78.3 °F) 0.0 kmh (0.0 mph) W 75% 1014.0hPa (29.94 inHg) 0.0mm (0.00 in.)
4:09 25.7°C (78.3 °F) 11.1 kmh (6.9 mph) W 75% 1014.0hPa (29.94 inHg) 0.0mm (0.00 in.)
3:09 25.7°C (78.3 °F) 0.0 kmh (0.0 mph) W 75% 1014.0hPa (29.94 inHg) 0.0mm (0.00 in.)
2:09 25.8°C (78.4 °F) 0.0 kmh (0.0 mph) WNW 74% 1014.0hPa (29.94 inHg) 0.0mm (0.00 in.)
1:09 25.7°C (78.3 °F) 0.0 kmh (0.0 mph) W 74% 1014.0hPa (29.94 inHg) 0.0mm (0.00 in.)
12:09 25.8°C (78.4 °F) 0.0 kmh (0.0 mph) SW 74% 1015.0hPa (29.97 inHg) 0.0mm (0.00 in.)
11:09 26.0°C (78.8 °F) 0.0 kmh (0.0 mph) SSW 72% 1015.0hPa (29.97 inHg) 0.0mm (0.00 in.)
10:02 26.5°C (79.7 °F) 0.0 kmh (0.0 mph) WSW 67% 1015.0hPa (29.97 inHg) 0.0mm (0.00 in.)
9:02 26.7°C (80.1 °F) 11.1 kmh (6.9 mph) WNW 65% 1015.0hPa (29.97 inHg) 0.0mm (0.00 in.)
8:02 27.2°C (81.0 °F) 11.1 kmh (6.9 mph) WNW 65% 1014.0hPa (29.94 inHg) 0.0mm (0.00 in.)
7:02 27.7°C (81.9 °F) 7.4 kmh (4.6 mph) WNW 64% 1014.0hPa (29.94 inHg) 0.0mm (0.00 in.)
6:02 29.5°C (85.1 °F) 0.0 kmh (0.0 mph) W 64% 1014.0hPa (29.94 inHg) 0.0mm (0.00 in.)
5:02 29.7°C (85.5 °F) 13.0 kmh (8.1 mph) NNW 63% 1014.0hPa (29.94 inHg) 0.0mm (0.00 in.)
4:02 29.9°C (85.8 °F) 11.1 kmh (6.9 mph) W 62% 1014.0hPa (29.94 inHg) 0.0mm (0.00 in.)
3:02 30.4°C (86.7 °F) 13.0 kmh (8.1 mph) W 61% 1015.0hPa (29.97 inHg) 0.0mm (0.00 in.)

You need the latest version of Flash Player to view some of our content.


Why not download and install the latest version now?
It will only take you a moment and will ensure that you can view all the latest flash designed websites.

Translate this page

Animated Satellite

Click per aprire http://www.gozo.ws/Animation.php
copyright 2015 EUMETSAT

European Lightning Activity


Please click image for full size

Sponsored Links